Green Lofoten — P3MG8 — position and weather

sailwx.info

Track history (hours):
 
Tides and Currents Weather Stations Pressure Air Temp Water Temp Dewpoint Dewpoint Depression Visibility Wind Speed Wind Dir Waves Ship Positions

Green Lofoten

Last reported at 2016-Aug-25 01:17 UTC. Time now 2016-Aug-26 17:31 UTC.
Position N 63°11' W 008°10'.

Length 98 m; draft 5.2 m.

Type: Ship. MMSI: 212857000.

Date/timePositionNaut miles runAvg speedWind from/ knotsBaromVisibWave heightAir tempDewpointWater temp
2016-Aug-25 01:17N 63°11' W 008°10'1114.7
2016-Aug-25 00:33N 63°04' W 007°52'1515.0
2016-Aug-24 23:33N 62°54' W 007°28'1515.1
2016-Aug-24 22:33N 62°44' W 007°03'1514.7
2016-Aug-24 21:33N 62°33' W 006°42'1515.4
2016-Aug-24 20:33N 62°25' W 006°13'1514.9
2016-Aug-24 19:33N 62°18' W 005°46'1414.5
2016-Aug-24 18:33N 62°10' W 005°19'1414.1
2016-Aug-24 17:33N 62°04' W 004°53'1414.0
2016-Aug-24 16:34N 61°57' W 004°27'17214.4
2016-Aug-24 04:34N 60°25' E 000°35'1514.7
2016-Aug-24 03:34N 60°15' E 000°58'1514.9
2016-Aug-24 02:33N 60°06' E 001°21'13414.6
2016-Aug-23 17:22N 58°40' E 004°43'1114.1
2016-Aug-23 16:34N 58°33' E 004°60'1414.4
2016-Aug-23 15:34N 58°24' E 005°21'1514.7
2016-Aug-23 14:33N 58°14' E 005°43'1514.9
2016-Aug-23 13:33N 58°05' E 006°05'1515.2
2016-Aug-23 12:32N 57°55' E 006°27'1414.7
2016-Aug-23 11:34N 57°55' E 006°54'10214.3
2016-Aug-23 04:26N 57°50' E 010°05'1313.6
2016-Aug-23 03:27N 57°50' E 010°30'1213.0
2016-Aug-23 02:33N 57°46' E 010°51'1414.5
2016-Aug-23 01:34N 57°36' E 011°11'1514.9
2016-Aug-23 00:34N 57°24' E 011°29'1514.8
2016-Aug-22 23:33N 57°10' E 011°38'1514.5
2016-Aug-22 22:33N 56°57' E 011°47'1414.1
2016-Aug-22 21:33N 56°43' E 011°55'1414.1
2016-Aug-22 20:33N 56°30' E 012°00'1413.5
2016-Aug-22 19:33N 56°17' E 012°09'1414.5
2016-Aug-22 18:33N 56°09' E 012°30'1413.8
2016-Aug-22 17:33N 55°56' E 012°39'1514.7
2016-Aug-22 16:33N 55°41' E 012°41'1414.0
2016-Aug-22 15:34N 55°27' E 012°42'1212.2
2016-Aug-22 14:34N 55°16' E 012°51'1414.4
2016-Aug-22 13:34N 55°15' E 013°16'1514.5
2016-Aug-22 12:33N 55°14' E 013°42'1414.0
2016-Aug-22 11:33N 55°13' E 014°07'1313.2
2016-Aug-22 10:33N 55°21' E 014°26'1414.2
2016-Aug-22 09:33N 55°29' E 014°46'1414.3
2016-Aug-22 08:33N 55°36' E 015°08'1514.6
2016-Aug-22 07:33N 55°44' E 015°30'1515.0
2016-Aug-22 06:33N 55°52' E 015°53'1514.7
2016-Aug-22 05:33N 55°59' E 016°16'3014.8
2016-Aug-22 03:32N 56°16' E 017°00'25014.7
2016-Aug-21 10:33N 59°23' E 022°10'1414.4
2016-Aug-21 09:33N 59°32' E 022°33'1514.7
2016-Aug-21 08:33N 59°35' E 023°01'1514.9
2016-Aug-21 07:33N 59°39' E 023°30'1515.3
2016-Aug-21 06:33N 59°43' E 023°59'1514.8
2016-Aug-21 05:33N 59°47' E 024°27'3314.7
2016-Aug-21 03:19N 59°54' E 025°31'1114.5
2016-Aug-21 02:33N 59°56' E 025°53'1514.8
2016-Aug-21 01:34N 59°60' E 026°21'1414.4
2016-Aug-21 00:33N 60°00' E 026°50'1414.0
2016-Aug-20 23:33N 60°04' E 027°17'1514.7
2016-Aug-20 22:33N 60°11' E 027°43'1414.4
2016-Aug-20 21:34N 60°09' E 028°11'1414.1
2016-Aug-20 20:34N 60°03' E 028°37'1514.8
2016-Aug-20 19:34N 60°02' E 029°07'1312.6
2016-Aug-20 18:30N 60°01' E 029°33'1111.2
2016-Aug-20 17:33N 59°57' E 029°53'1010.1
2016-Aug-20 16:33N 59°53' E 030°11'1 0.9
2016-Aug-20 15:29N 59°52' E 030°13'0 0.0
2016-Aug-20 14:29N 59°52' E 030°13'0 0.0
2016-Aug-20 13:32N 59°52' E 030°13'0 0.0
2016-Aug-20 12:32N 59°52' E 030°13'0 0.0
2016-Aug-20 11:32N 59°52' E 030°13'0 0.0
2016-Aug-20 10:32N 59°52' E 030°13'0 0.0
2016-Aug-20 09:23N 59°52' E 030°13'0 0.0
2016-Aug-20 08:32N 59°52' E 030°13'0 0.0
2016-Aug-20 07:32N 59°52' E 030°13'0 0.0
2016-Aug-20 06:32N 59°52' E 030°13'0 0.0
2016-Aug-20 05:32N 59°52' E 030°13'0 0.0
2016-Aug-20 04:14N 59°52' E 030°13'0 0.0
2016-Aug-20 03:32N 59°52' E 030°13'0 0.0
2016-Aug-20 02:20N 59°52' E 030°13'0 0.0
2016-Aug-20 01:30N 59°52' E 030°13'0 0.0
2016-Aug-20 00:32N 59°52' E 030°13'0 0.0
2016-Aug-19 23:32N 59°52' E 030°13'0 0.0
2016-Aug-19 22:32N 59°52' E 030°13'0 0.0
2016-Aug-19 21:29N 59°52' E 030°13'0 0.0
2016-Aug-19 20:32N 59°52' E 030°13'0 0.0
2016-Aug-19 19:32N 59°52' E 030°13'0 0.0
2016-Aug-19 18:32N 59°52' E 030°13'0 0.0
2016-Aug-19 17:32N 59°52' E 030°13'0 0.0
2016-Aug-19 16:32N 59°52' E 030°13'0 0.0
2016-Aug-19 15:32N 59°52' E 030°13'0 0.0
2016-Aug-19 14:29N 59°52' E 030°13'0 0.0
2016-Aug-19 13:32N 59°52' E 030°13'0 0.0
2016-Aug-19 12:29N 59°52' E 030°13'0 0.0
2016-Aug-19 11:23N 59°52' E 030°13'0 0.0
2016-Aug-19 10:32N 59°52' E 030°13'0 0.0
2016-Aug-19 09:32N 59°52' E 030°13'0 0.0
2016-Aug-19 08:32N 59°52' E 030°13'0 0.0
2016-Aug-19 07:31N 59°52' E 030°13'0 0.0
2016-Aug-19 06:31N 59°52' E 030°13'0 0.0
2016-Aug-19 05:31N 59°52' E 030°13'0 0.0
2016-Aug-19 04:31N 59°52' E 030°13'0 0.0
2016-Aug-19 03:31N 59°52' E 030°13'0 0.0
2016-Aug-19 02:28N 59°52' E 030°13'0 0.0
2016-Aug-19 01:31N 59°52' E 030°13'0 0.0
2016-Aug-19 00:31N 59°52' E 030°13'0 0.0
2016-Aug-18 23:25N 59°52' E 030°13'0 0.0
2016-Aug-18 22:31N 59°52' E 030°13'0 0.0
2016-Aug-18 21:31N 59°52' E 030°13'0 0.0
2016-Aug-18 20:28N 59°52' E 030°13'0 0.0
2016-Aug-18 19:31N 59°52' E 030°13'0 0.0
2016-Aug-18 18:28N 59°52' E 030°13'0 0.0
2016-Aug-18 17:25N 59°52' E 030°13'0 0.0
2016-Aug-18 16:31N 59°52' E 030°13'0 0.0
2016-Aug-18 15:31N 59°52' E 030°13'0 0.0
2016-Aug-18 14:31N 59°52' E 030°13'0 0.0
2016-Aug-18 13:25N 59°52' E 030°13'0 0.0
2016-Aug-18 11:31N 59°52' E 030°13'0 0.0
2016-Aug-18 10:25N 59°52' E 030°13'0 0.0
2016-Aug-18 09:28N 59°52' E 030°13'0 0.0
2016-Aug-18 08:31N 59°52' E 030°13'0 0.0
2016-Aug-18 07:31N 59°52' E 030°13'0 0.0
2016-Aug-18 06:31N 59°52' E 030°13'0 0.0
2016-Aug-18 05:28N 59°52' E 030°13'0 0.0
2016-Aug-18 04:31N 59°52' E 030°13'0 0.0
2016-Aug-18 03:31N 59°52' E 030°13'0 0.0
2016-Aug-18 02:19N 59°52' E 030°13'0 0.0
2016-Aug-18 01:31N 59°52' E 030°13'0 0.0
2016-Aug-18 00:31N 59°52' E 030°13'0 0.0
2016-Aug-17 23:31N 59°52' E 030°13'0 0.0
2016-Aug-17 22:31N 59°52' E 030°13'0 0.0
2016-Aug-17 21:31N 59°52' E 030°13'0 0.0
2016-Aug-17 20:31N 59°52' E 030°13'0 0.0
2016-Aug-17 19:31N 59°52' E 030°13'0 0.0
2016-Aug-17 18:31N 59°52' E 030°13'0 0.0
2016-Aug-17 17:31N 59°52' E 030°13'0 0.0
2016-Aug-17 16:28N 59°52' E 030°13'0 0.0
2016-Aug-17 15:31N 59°52' E 030°13'0 0.0
2016-Aug-17 14:31N 59°52' E 030°13'0 0.0
2016-Aug-17 12:13N 59°52' E 030°13'0 0.0
2016-Aug-17 11:25N 59°52' E 030°13'0 0.0
2016-Aug-17 10:31N 59°52' E 030°13'0 0.0
2016-Aug-17 09:28N 59°52' E 030°13'0 0.0
2016-Aug-17 08:31N 59°52' E 030°13'0 0.0
2016-Aug-17 07:31N 59°52' E 030°13'0 0.0
2016-Aug-17 06:31N 59°52' E 030°13'0 0.0
2016-Aug-17 05:28N 59°52' E 030°13'0 0.0
2016-Aug-17 04:25N 59°52' E 030°13'0 0.0
2016-Aug-17 03:31N 59°52' E 030°13'0 0.0
2016-Aug-17 02:31N 59°52' E 030°13'0 0.0
2016-Aug-17 01:31N 59°52' E 030°13'0 0.0
2016-Aug-17 00:31N 59°52' E 030°13'0 0.0
2016-Aug-16 23:31N 59°52' E 030°13'0 0.0
2016-Aug-16 22:31N 59°52' E 030°13'0 0.0
2016-Aug-16 21:31N 59°52' E 030°13'0 0.0
2016-Aug-16 20:31N 59°52' E 030°13'0 0.0
2016-Aug-16 19:25N 59°52' E 030°13'0 0.0
2016-Aug-16 18:31N 59°52' E 030°13'0 0.0
2016-Aug-16 17:31N 59°52' E 030°13'0 0.0
2016-Aug-16 16:31N 59°52' E 030°13'0 0.0
2016-Aug-16 15:31N 59°52' E 030°13'0 0.0
2016-Aug-16 14:31N 59°52' E 030°13'0 0.0
2016-Aug-16 13:31N 59°52' E 030°13'0 0.0
2016-Aug-16 12:31N 59°52' E 030°13'0 0.0
2016-Aug-16 11:31N 59°52' E 030°13'0 0.0
2016-Aug-16 10:31N 59°52' E 030°13'0 0.0
2016-Aug-16 09:31N 59°52' E 030°13'0 0.0
2016-Aug-16 08:31N 59°52' E 030°13'0 0.0
2016-Aug-16 07:28N 59°52' E 030°13'0 0.0
2016-Aug-16 04:31N 59°52' E 030°13'0 0.0
2016-Aug-16 03:28N 59°52' E 030°13'0 0.0
2016-Aug-16 02:31N 59°52' E 030°13'0 0.0
2016-Aug-16 01:19N 59°52' E 030°13'0 0.0
2016-Aug-16 00:25N 59°52' E 030°13'0 0.0
2016-Aug-15 23:28N 59°52' E 030°13'0 0.0
2016-Aug-15 22:31N 59°52' E 030°13'0 0.0
2016-Aug-15 21:31N 59°52' E 030°13'0 0.0
2016-Aug-15 20:31N 59°52' E 030°13'0 0.0
2016-Aug-15 19:31N 59°52' E 030°13'0 0.0
2016-Aug-15 18:31N 59°52' E 030°13'0 0.0
2016-Aug-15 17:31N 59°52' E 030°13'0 0.0
2016-Aug-15 16:31N 59°52' E 030°13'1 0.6
2016-Aug-15 15:33N 59°53' E 030°12'6 6.5
2016-Aug-15 14:33N 59°55' E 030°00'10 9.9
2016-Aug-15 13:33N 59°59' E 029°42'19 6.2
2016-Aug-15 10:31N 60°02' E 029°05'1111.1
2016-Aug-15 09:33N 60°02' E 028°43'1111.1
2016-Aug-15 08:32N 60°05' E 028°22'1111.7
2016-Aug-15 07:33N 60°09' E 028°00'1211.2
2016-Aug-15 06:30N 60°08' E 027°37'2311.8
2016-Aug-15 04:33N 59°59' E 026°55'1212.4
2016-Aug-15 03:33N 59°58' E 026°30'1412.6
2016-Aug-15 02:26N 59°54' E 026°03'1212.5
2016-Aug-15 01:29N 59°51' E 025°40'  
Track history (hours):
 
Tides and Currents Weather Stations Pressure Air Temp Water Temp Dewpoint Dewpoint Depression Visibility Wind Speed Wind Dir Waves Ship Positions

Green Lofoten

Last reported at 2016-Aug-25 01:17 UTC. Time now 2016-Aug-26 17:31 UTC.
Position N 63°11' W 008°10'.

Length 98 m; draft 5.2 m.

Type: Ship. MMSI: 212857000.

Date/timePositionNaut miles runAvg speedWind from/ knotsBaromVisibWave heightAir tempDewpointWater temp
2016-Aug-25 01:17N 63°11' W 008°10'1114.7
2016-Aug-25 00:33N 63°04' W 007°52'1515.0
2016-Aug-24 23:33N 62°54' W 007°28'1515.1
2016-Aug-24 22:33N 62°44' W 007°03'1514.7
2016-Aug-24 21:33N 62°33' W 006°42'1515.4
2016-Aug-24 20:33N 62°25' W 006°13'1514.9
2016-Aug-24 19:33N 62°18' W 005°46'1414.5
2016-Aug-24 18:33N 62°10' W 005°19'1414.1
2016-Aug-24 17:33N 62°04' W 004°53'1414.0
2016-Aug-24 16:34N 61°57' W 004°27'17214.4
2016-Aug-24 04:34N 60°25' E 000°35'1514.7
2016-Aug-24 03:34N 60°15' E 000°58'1514.9
2016-Aug-24 02:33N 60°06' E 001°21'13414.6
2016-Aug-23 17:22N 58°40' E 004°43'1114.1
2016-Aug-23 16:34N 58°33' E 004°60'1414.4
2016-Aug-23 15:34N 58°24' E 005°21'1514.7
2016-Aug-23 14:33N 58°14' E 005°43'1514.9
2016-Aug-23 13:33N 58°05' E 006°05'1515.2
2016-Aug-23 12:32N 57°55' E 006°27'1414.7
2016-Aug-23 11:34N 57°55' E 006°54'10214.3
2016-Aug-23 04:26N 57°50' E 010°05'1313.6
2016-Aug-23 03:27N 57°50' E 010°30'1213.0
2016-Aug-23 02:33N 57°46' E 010°51'1414.5
2016-Aug-23 01:34N 57°36' E 011°11'1514.9
2016-Aug-23 00:34N 57°24' E 011°29'1514.8
2016-Aug-22 23:33N 57°10' E 011°38'1514.5
2016-Aug-22 22:33N 56°57' E 011°47'1414.1
2016-Aug-22 21:33N 56°43' E 011°55'1414.1
2016-Aug-22 20:33N 56°30' E 012°00'1413.5
2016-Aug-22 19:33N 56°17' E 012°09'1414.5
2016-Aug-22 18:33N 56°09' E 012°30'1413.8
2016-Aug-22 17:33N 55°56' E 012°39'1514.7
2016-Aug-22 16:33N 55°41' E 012°41'1414.0
2016-Aug-22 15:34N 55°27' E 012°42'1212.2
2016-Aug-22 14:34N 55°16' E 012°51'1414.4
2016-Aug-22 13:34N 55°15' E 013°16'1514.5
2016-Aug-22 12:33N 55°14' E 013°42'1414.0
2016-Aug-22 11:33N 55°13' E 014°07'1313.2
2016-Aug-22 10:33N 55°21' E 014°26'1414.2
2016-Aug-22 09:33N 55°29' E 014°46'1414.3
2016-Aug-22 08:33N 55°36' E 015°08'1514.6
2016-Aug-22 07:33N 55°44' E 015°30'1515.0
2016-Aug-22 06:33N 55°52' E 015°53'1514.7
2016-Aug-22 05:33N 55°59' E 016°16'3014.8
2016-Aug-22 03:32N 56°16' E 017°00'25014.7
2016-Aug-21 10:33N 59°23' E 022°10'1414.4
2016-Aug-21 09:33N 59°32' E 022°33'1514.7
2016-Aug-21 08:33N 59°35' E 023°01'1514.9
2016-Aug-21 07:33N 59°39' E 023°30'1515.3
2016-Aug-21 06:33N 59°43' E 023°59'1514.8
2016-Aug-21 05:33N 59°47' E 024°27'3314.7
2016-Aug-21 03:19N 59°54' E 025°31'1114.5
2016-Aug-21 02:33N 59°56' E 025°53'1514.8
2016-Aug-21 01:34N 59°60' E 026°21'1414.4
2016-Aug-21 00:33N 60°00' E 026°50'1414.0
2016-Aug-20 23:33N 60°04' E 027°17'1514.7
2016-Aug-20 22:33N 60°11' E 027°43'1414.4
2016-Aug-20 21:34N 60°09' E 028°11'1414.1
2016-Aug-20 20:34N 60°03' E 028°37'1514.8
2016-Aug-20 19:34N 60°02' E 029°07'1312.6
2016-Aug-20 18:30N 60°01' E 029°33'1111.2
2016-Aug-20 17:33N 59°57' E 029°53'1010.1
2016-Aug-20 16:33N 59°53' E 030°11'1 0.9
2016-Aug-20 15:29N 59°52' E 030°13'0 0.0
2016-Aug-20 14:29N 59°52' E 030°13'0 0.0
2016-Aug-20 13:32N 59°52' E 030°13'0 0.0
2016-Aug-20 12:32N 59°52' E 030°13'0 0.0
2016-Aug-20 11:32N 59°52' E 030°13'0 0.0
2016-Aug-20 10:32N 59°52' E 030°13'0 0.0
2016-Aug-20 09:23N 59°52' E 030°13'0 0.0
2016-Aug-20 08:32N 59°52' E 030°13'0 0.0
2016-Aug-20 07:32N 59°52' E 030°13'0 0.0
2016-Aug-20 06:32N 59°52' E 030°13'0 0.0
2016-Aug-20 05:32N 59°52' E 030°13'0 0.0
2016-Aug-20 04:14N 59°52' E 030°13'0 0.0
2016-Aug-20 03:32N 59°52' E 030°13'0 0.0
2016-Aug-20 02:20N 59°52' E 030°13'0 0.0
2016-Aug-20 01:30N 59°52' E 030°13'0 0.0
2016-Aug-20 00:32N 59°52' E 030°13'0 0.0
2016-Aug-19 23:32N 59°52' E 030°13'0 0.0
2016-Aug-19 22:32N 59°52' E 030°13'0 0.0
2016-Aug-19 21:29N 59°52' E 030°13'0 0.0
2016-Aug-19 20:32N 59°52' E 030°13'0 0.0
2016-Aug-19 19:32N 59°52' E 030°13'0 0.0
2016-Aug-19 18:32N 59°52' E 030°13'0 0.0
2016-Aug-19 17:32N 59°52' E 030°13'0 0.0
2016-Aug-19 16:32N 59°52' E 030°13'0 0.0
2016-Aug-19 15:32N 59°52' E 030°13'0 0.0
2016-Aug-19 14:29N 59°52' E 030°13'0 0.0
2016-Aug-19 13:32N 59°52' E 030°13'0 0.0
2016-Aug-19 12:29N 59°52' E 030°13'0 0.0
2016-Aug-19 11:23N 59°52' E 030°13'0 0.0
2016-Aug-19 10:32N 59°52' E 030°13'0 0.0
2016-Aug-19 09:32N 59°52' E 030°13'0 0.0
2016-Aug-19 08:32N 59°52' E 030°13'0 0.0
2016-Aug-19 07:31N 59°52' E 030°13'0 0.0
2016-Aug-19 06:31N 59°52' E 030°13'0 0.0
2016-Aug-19 05:31N 59°52' E 030°13'0 0.0
2016-Aug-19 04:31N 59°52' E 030°13'0 0.0
2016-Aug-19 03:31N 59°52' E 030°13'0 0.0
2016-Aug-19 02:28N 59°52' E 030°13'0 0.0
2016-Aug-19 01:31N 59°52' E 030°13'0 0.0
2016-Aug-19 00:31N 59°52' E 030°13'0 0.0
2016-Aug-18 23:25N 59°52' E 030°13'0 0.0
2016-Aug-18 22:31N 59°52' E 030°13'0 0.0
2016-Aug-18 21:31N 59°52' E 030°13'0 0.0
2016-Aug-18 20:28N 59°52' E 030°13'0 0.0
2016-Aug-18 19:31N 59°52' E 030°13'0 0.0
2016-Aug-18 18:28N 59°52' E 030°13'0 0.0
2016-Aug-18 17:25N 59°52' E 030°13'0 0.0
2016-Aug-18 16:31N 59°52' E 030°13'0 0.0
2016-Aug-18 15:31N 59°52' E 030°13'0 0.0
2016-Aug-18 14:31N 59°52' E 030°13'0 0.0
2016-Aug-18 13:25N 59°52' E 030°13'0 0.0
2016-Aug-18 11:31N 59°52' E 030°13'0 0.0
2016-Aug-18 10:25N 59°52' E 030°13'0 0.0
2016-Aug-18 09:28N 59°52' E 030°13'0 0.0
2016-Aug-18 08:31N 59°52' E 030°13'0 0.0
2016-Aug-18 07:31N 59°52' E 030°13'0 0.0
2016-Aug-18 06:31N 59°52' E 030°13'0 0.0
2016-Aug-18 05:28N 59°52' E 030°13'0 0.0
2016-Aug-18 04:31N 59°52' E 030°13'0 0.0
2016-Aug-18 03:31N 59°52' E 030°13'0 0.0
2016-Aug-18 02:19N 59°52' E 030°13'0 0.0
2016-Aug-18 01:31N 59°52' E 030°13'0 0.0
2016-Aug-18 00:31N 59°52' E 030°13'0 0.0
2016-Aug-17 23:31N 59°52' E 030°13'0 0.0
2016-Aug-17 22:31N 59°52' E 030°13'0 0.0
2016-Aug-17 21:31N 59°52' E 030°13'0 0.0
2016-Aug-17 20:31N 59°52' E 030°13'0 0.0
2016-Aug-17 19:31N 59°52' E 030°13'0 0.0
2016-Aug-17 18:31N 59°52' E 030°13'0 0.0
2016-Aug-17 17:31N 59°52' E 030°13'0 0.0
2016-Aug-17 16:28N 59°52' E 030°13'0 0.0
2016-Aug-17 15:31N 59°52' E 030°13'0 0.0
2016-Aug-17 14:31N 59°52' E 030°13'0 0.0
2016-Aug-17 12:13N 59°52' E 030°13'0 0.0
2016-Aug-17 11:25N 59°52' E 030°13'0 0.0
2016-Aug-17 10:31N 59°52' E 030°13'0 0.0
2016-Aug-17 09:28N 59°52' E 030°13'0 0.0
2016-Aug-17 08:31N 59°52' E 030°13'0 0.0
2016-Aug-17 07:31N 59°52' E 030°13'0 0.0
2016-Aug-17 06:31N 59°52' E 030°13'0 0.0
2016-Aug-17 05:28N 59°52' E 030°13'0 0.0
2016-Aug-17 04:25N 59°52' E 030°13'0 0.0
2016-Aug-17 03:31N 59°52' E 030°13'0 0.0
2016-Aug-17 02:31N 59°52' E 030°13'0 0.0
2016-Aug-17 01:31N 59°52' E 030°13'0 0.0
2016-Aug-17 00:31N 59°52' E 030°13'0 0.0
2016-Aug-16 23:31N 59°52' E 030°13'0 0.0
2016-Aug-16 22:31N 59°52' E 030°13'0 0.0
2016-Aug-16 21:31N 59°52' E 030°13'0 0.0
2016-Aug-16 20:31N 59°52' E 030°13'0 0.0
2016-Aug-16 19:25N 59°52' E 030°13'0 0.0
2016-Aug-16 18:31N 59°52' E 030°13'0 0.0
2016-Aug-16 17:31N 59°52' E 030°13'0 0.0
2016-Aug-16 16:31N 59°52' E 030°13'0 0.0
2016-Aug-16 15:31N 59°52' E 030°13'0 0.0
2016-Aug-16 14:31N 59°52' E 030°13'0 0.0
2016-Aug-16 13:31N 59°52' E 030°13'0 0.0
2016-Aug-16 12:31N 59°52' E 030°13'0 0.0
2016-Aug-16 11:31N 59°52' E 030°13'0 0.0
2016-Aug-16 10:31N 59°52' E 030°13'0 0.0
2016-Aug-16 09:31N 59°52' E 030°13'0 0.0
2016-Aug-16 08:31N 59°52' E 030°13'0 0.0
2016-Aug-16 07:28N 59°52' E 030°13'0 0.0
2016-Aug-16 04:31N 59°52' E 030°13'0 0.0
2016-Aug-16 03:28N 59°52' E 030°13'0 0.0
2016-Aug-16 02:31N 59°52' E 030°13'0 0.0
2016-Aug-16 01:19N 59°52' E 030°13'0 0.0
2016-Aug-16 00:25N 59°52' E 030°13'0 0.0
2016-Aug-15 23:28N 59°52' E 030°13'0 0.0
2016-Aug-15 22:31N 59°52' E 030°13'0 0.0
2016-Aug-15 21:31N 59°52' E 030°13'0 0.0
2016-Aug-15 20:31N 59°52' E 030°13'0 0.0
2016-Aug-15 19:31N 59°52' E 030°13'0 0.0
2016-Aug-15 18:31N 59°52' E 030°13'0 0.0
2016-Aug-15 17:31N 59°52' E 030°13'0 0.0
2016-Aug-15 16:31N 59°52' E 030°13'1 0.6
2016-Aug-15 15:33N 59°53' E 030°12'6 6.5
2016-Aug-15 14:33N 59°55' E 030°00'10 9.9
2016-Aug-15 13:33N 59°59' E 029°42'19 6.2
2016-Aug-15 10:31N 60°02' E 029°05'1111.1
2016-Aug-15 09:33N 60°02' E 028°43'1111.1
2016-Aug-15 08:32N 60°05' E 028°22'1111.7
2016-Aug-15 07:33N 60°09' E 028°00'1211.2
2016-Aug-15 06:30N 60°08' E 027°37'2311.8
2016-Aug-15 04:33N 59°59' E 026°55'1212.4
2016-Aug-15 03:33N 59°58' E 026°30'1412.6
2016-Aug-15 02:26N 59°54' E 026°03'1212.5
2016-Aug-15 01:29N 59°51' E 025°40'  

Dump ship's entire track history